地図

経路データ

SID SEASON NUMBER BASIN SUBBASIN NAME ISO_TIME NATURE LAT LON WMO_WIND WMO_PRES WMO_AGENCY TRACK_TYPE DIST2LAND LANDFALL IFLAG USA_AGENCY USA_ATCF_ID USA_LAT USA_LON USA_RECORD USA_STATUS USA_WIND USA_PRES USA_SSHS USA_R34_NE USA_R34_SE USA_R34_SW USA_R34_NW USA_R50_NE USA_R50_SE USA_R50_SW USA_R50_NW USA_R64_NE USA_R64_SE USA_R64_SW USA_R64_NW USA_POCI USA_ROCI USA_RMW USA_EYE TOKYO_LAT TOKYO_LON TOKYO_GRADE TOKYO_WIND TOKYO_PRES TOKYO_R50_DIR TOKYO_R50_LONG TOKYO_R50_SHORT TOKYO_R30_DIR TOKYO_R30_LONG TOKYO_R30_SHORT TOKYO_LAND CMA_LAT CMA_LON CMA_CAT CMA_WIND CMA_PRES HKO_LAT HKO_LON HKO_CAT HKO_WIND HKO_PRES NEWDELHI_LAT NEWDELHI_LON NEWDELHI_GRADE NEWDELHI_WIND NEWDELHI_PRES NEWDELHI_CI NEWDELHI_DP NEWDELHI_POCI REUNION_LAT REUNION_LON REUNION_TYPE REUNION_WIND REUNION_PRES REUNION_TNUM REUNION_CI REUNION_RMW REUNION_R34_NE REUNION_R34_SE REUNION_R34_SW REUNION_R34_NW REUNION_R50_NE REUNION_R50_SE REUNION_R50_SW REUNION_R50_NW REUNION_R64_NE REUNION_R64_SE REUNION_R64_SW REUNION_R64_NW BOM_LAT BOM_LON BOM_TYPE BOM_WIND BOM_PRES BOM_TNUM BOM_CI BOM_RMW BOM_R34_NE BOM_R34_SE BOM_R34_SW BOM_R34_NW BOM_R50_NE BOM_R50_SE BOM_R50_SW BOM_R50_NW BOM_R64_NE BOM_R64_SE BOM_R64_SW BOM_R64_NW BOM_ROCI BOM_POCI BOM_EYE BOM_POS_METHOD BOM_PRES_METHOD NADI_LAT NADI_LON NADI_CAT NADI_WIND NADI_PRES WELLINGTON_LAT WELLINGTON_LON WELLINGTON_WIND WELLINGTON_PRES DS824_LAT DS824_LON DS824_STAGE DS824_WIND DS824_PRES TD9636_LAT TD9636_LON TD9636_STAGE TD9636_WIND TD9636_PRES TD9635_LAT TD9635_LON TD9635_WIND TD9635_PRES TD9635_ROCI NEUMANN_LAT NEUMANN_LON NEUMANN_CLASS NEUMANN_WIND NEUMANN_PRES MLC_LAT MLC_LON MLC_CLASS MLC_WIND MLC_PRES USA_GUST BOM_GUST BOM_GUST_PER REUNION_GUST REUNION_GUST_PER USA_SEAHGT USA_SEARAD_NE USA_SEARAD_SE USA_SEARAD_SW USA_SEARAD_NW STORM_SPEED STORM_DIR
1981142S08091 1981 36 SI WA PADDY 1981-05-22 00:00:00 TS -8.00000 90.7000 main 1150 1144 O_________O_O_ jtwc_sh SH291981 -8.00000 90.7000 20 -1 -8.00000 90.7000 1 20 -8.00000 90.7000 TC 20 2 345
1981142S08091 1981 36 SI WA PADDY 1981-05-22 03:00:00 TS -7.89896 90.6983 main 1144 1137 P_________P_P_ SH291981 -7.91250 90.7100 20 -1 -7.87189 90.6750 1 20 -7.91250 90.7100 TC 20 2 0
1981142S08091 1981 36 SI WA PADDY 1981-05-22 06:00:00 TS -7.78167 90.6833 main 1137 1130 O_________P_O_ jtwc_sh SH291981 -7.80000 90.7000 20 -1 -7.74502 90.6500 1 20 -7.80000 90.7000 TC 20 3 347
1981142S08091 1981 36 SI WA PADDY 1981-05-22 09:00:00 TS -7.64021 90.6467 main 1133 1126 P_________P_P_ SH291981 -7.65000 90.6575 20 -1 -7.62064 90.6250 1 20 -7.65000 90.6575 TC 20 3 344
1981142S08091 1981 36 SI WA PADDY 1981-05-22 12:00:00 TS -7.50000 90.6000 main 1126 1120 O_________O_O_ jtwc_sh SH291981 -7.50000 90.6000 20 -1 -7.50000 90.6000 1 20 -7.50000 90.6000 TC 20 3 340
1981142S08091 1981 36 SI WA PADDY 1981-05-22 15:00:00 TS -7.39437 90.5578 main 1120 1120 P_________P_P_ SH291981 -7.40000 90.5500 20 -1 -7.38310 90.5735 1 20 -7.40000 90.5500 TC 20 2 337
1981142S08091 1981 36 SI WA PADDY 1981-05-22 18:00:00 TS -7.28832 90.5125 main 1123 1117 O_________P_O_ jtwc_sh SH291981 -7.30000 90.5000 20 -1 -7.26497 90.5376 1 20 -7.30000 90.5000 TC 20 3 340
1981142S08091 1981 36 SI WA PADDY 1981-05-22 21:00:00 TS -7.15644 90.4710 main 1117 1111 P_________P_P_ SH291981 -7.16499 90.4650 20 -1 -7.13935 90.4829 1 20 -7.16499 90.4650 TC 20 3 339
1981142S08091 1981 36 SI WA PADDY 1981-05-23 00:00:00 TS -7.00000 90.4000 main 1114 1108 O_________O_O_ jtwc_sh SH291981 -7.00000 90.4000 20 -1 -7.00000 90.4000 1 20 -7.00000 90.4000 TC 20 4 332
1981142S08091 1981 36 SI WA PADDY 1981-05-23 03:00:00 TS -6.79147 90.2709 main 1112 1110 P_________P_P_ SH291981 -6.80001 90.2650 20 -1 -6.77439 90.2826 1 20 -6.80001 90.2650 TC 20 5 326
1981142S08091 1981 36 SI WA PADDY 1981-05-23 06:00:00 TS -6.58167 90.1124 main 1120 1115 O_________P_O_ jtwc_sh SH291981 -6.60000 90.1000 20 -1 -6.54501 90.1372 1 20 -6.60000 90.1000 TC 20 5 323
1981142S08091 1981 36 SI MM PADDY 1981-05-23 09:00:00 TS -6.38770 89.9627 main 1118 1118 P_________P_P_ SH291981 -6.39749 89.9575 20 -1 -6.36813 89.9732 1 20 -6.39749 89.9575 TC 20 4 312
1981142S08091 1981 36 SI MM PADDY 1981-05-23 12:00:00 TS -6.30000 89.8000 main 1131 1131 O_________O_O_ jtwc_sh SH291981 -6.30000 89.8000 20 -1 -6.30000 89.8000 1 20 -6.30000 89.8000 TC 20 4 270
1981142S08091 1981 36 SI MM PADDY 1981-05-23 15:00:00 TS -6.38763 89.5879 main 1156 1156 P_________P_P_ SH291981 -6.38251 89.6000 20 -1 -6.39786 89.5635 1 20 -6.38251 89.6000 TC 20 5 234
1981142S08091 1981 36 SI MM PADDY 1981-05-23 18:00:00 TS -6.60251 89.3769 main 1187 1187 O_________P_O_ jtwc_sh SH291981 -6.60000 89.4000 20 -1 -6.60754 89.3306 1 20 -6.60000 89.4000 TC 20 6 219
1981142S08091 1981 36 SI MM PADDY 1981-05-23 21:00:00 TS -6.88114 89.1792 main 1223 1223 P_________P_P_ SH291981 -6.87750 89.1901 20 -1 -6.88843 89.1574 1 20 -6.87750 89.1901 TC 20 7 205
1981142S08091 1981 36 SI MM PADDY 1981-05-24 00:00:00 TS -7.20000 89.1000 main 1249 1245 O_________O_O_ jtwc_sh SH291981 -7.20000 89.1000 20 -1 -7.20000 89.1000 1 20 -7.20000 89.1000 TC 20 5 175
1981142S08091 1981 36 SI MM PADDY 1981-05-24 03:00:00 TS -7.37676 89.2168 25 1004 bom main 1251 1237 P_____O___P_P_ SH291981 -7.49999 89.2325 20 -1 -6.00000 89.0000 20 25 1004 2.00000 3 -7.47448 89.2397 1 20 -7.49999 89.2325 TC 20 45 45 5 141
1981142S08091 1981 36 SI MM PADDY 1981-05-24 06:00:00 TS -7.60577 89.4270 30 1001 bom main 1243 1231 O_____O___P_O_ jtwc_sh SH291981 -7.80000 89.5000 20 -1 -6.50000 89.0000 20 30 1001 2.50000 3 -7.77021 89.4946 1 20 -7.80000 89.5000 TC 20 45 45 6 137
1981142S08091 1981 36 SI MM PADDY 1981-05-24 09:00:00 TS -7.82150 89.6405 main 1237 1224 P_____P___P_P_ SH291981 -8.10005 89.8075 20 -1 -6.73296 88.9796 20 30 1000 -8.08080 89.8022 1 20 -8.10005 89.8075 TC 20 6 138
1981142S08091 1981 36 SI MM PADDY 1981-05-24 12:00:00 TS -8.05000 89.8250 30 999 bom main 1231 1228 O_____O___O_O_ jtwc_sh SH291981 -8.40000 90.1000 20 -1 -7.00000 89.0000 20 30 999 2.50000 3 -8.40000 90.1000 1 20 -8.40000 90.1000 TC 20 45 45 7 152
1981142S08091 1981 36 SI MM PADDY 1981-05-24 15:00:00 TS -8.46144 89.9848 main 1246 1246 P_____P___P_P_ SH291981 -8.69245 90.2651 20 -1 -7.73500 89.1124 20 30 998 -8.72585 90.2967 1 21 -8.69245 90.2651 TC 20 9 159
1981142S08091 1981 36 SI WA PADDY 1981-05-24 18:00:00 TS -8.88935 90.1432 30 997 bom main 1265 1256 O_____O___P_O_ jtwc_sh SH291981 -9.00000 90.4000 20 -1 -8.50000 89.3000 20 30 997 2.50000 3 -9.05739 90.4727 1 22 -9.00000 90.4000 TC 20 45 45 9 156
1981142S08091 1981 36 SI WA PADDY 1981-05-24 21:00:00 TS -9.23754 90.3338 main 1270 1268 P_____P___P_P_ SH291981 -9.35001 90.6000 22 -1 -8.86489 89.4979 20 35 995 -9.38524 90.6373 1 23 -9.35001 90.6000 TC 22 8 150
1981142S08091 1981 36 SI WA PADDY 1981-05-25 00:00:00 TS -9.57500 90.5500 40 994 bom main 1275 1275 O_____O___O_O_ jtwc_sh SH291981 -9.70000 90.8000 25 -1 -9.20000 89.8000 30 40 994 3.00000 3 -9.70000 90.8000 1 25 -9.70000 90.8000 TC 25 55 55 9 148
1981142S08091 1981 36 SI WA PADDY 1981-05-25 03:00:00 TS -9.97519 90.7977 main 1291 1291 P_____P___P_P_ SH291981 -10.0150 90.9501 25 -1 -9.86520 90.2994 30 42 992 -10.0056 90.9912 1 25 -10.0150 90.9501 TC 25 9 148
1981142S08091 1981 36 SI WA PADDY 1981-05-25 06:00:00 TS -10.3488 91.0450 45 991 bom main 1300 1300 O_____O___P_O_ jtwc_sh SH291981 -10.3000 91.1000 25 -1 -10.5000 90.8000 30 45 991 3.00000 3 -10.2950 91.1799 1 25 -10.3000 91.1000 TC 25 64 64 8 145
1981142S08091 1981 36 SI WA PADDY 1981-05-25 09:00:00 TS -10.6292 91.2716 main 1303 1303 P_____P___P_P_ SH291981 -10.5650 91.3075 25 -1 -10.8249 91.1178 30 47 989 -10.5619 91.3537 1 25 -10.5650 91.3075 TC 25 6 142
1981142S08091 1981 36 SI WA PADDY 1981-05-25 12:00:00 TS -10.8500 91.4500 50 988 bom main 1307 1307 O_____O___O_O_ jtwc_sh SH291981 -10.8000 91.5000 25 -1 -11.0000 91.3000 30 50 988 3.50000 3 -10.8000 91.5000 1 25 -10.8000 91.5000 TC 25 69 69 5 146
1981142S08091 1981 36 SI WA PADDY 1981-05-25 15:00:00 TS -11.0468 91.5566 main 1317 1317 P_____P___P_P_ SH291981 -11.0150 91.6225 25 -1 -11.1575 91.3651 30 52 985 -10.9996 91.6161 1 26 -11.0150 91.6225 TC 25 4 155
1981142S08091 1981 36 SI WA PADDY 1981-05-25 18:00:00 TS -11.2181 91.6257 55 982 bom main 1335 1335 O_____O___P_O_ jtwc_sh SH291981 -11.2000 91.7000 25 -1 -11.3000 91.4000 30 55 982 4.00000 3 -11.1724 91.7026 1 27 -11.2000 91.7000 TC 25 75 75 4 156
1981142S08091 1981 36 SI WA PADDY 1981-05-25 21:00:00 TS -11.3798 91.7070 main 1346 1346 P_____P___P_P_ SH291981 -11.3500 91.7650 27 -1 -11.4850 91.5350 30 55 982 -11.3340 91.7629 1 28 -11.3500 91.7650 TC 27 4 156
1981142S08091 1981 36 SI WA PADDY 1981-05-26 00:00:00 TS -11.5500 91.7750 55 982 bom main 1349 1358 O_____O___O_O_ jtwc_sh SH291981 -11.5000 91.8000 30 -1 -11.7000 91.7000 30 55 982 4.00000 3 -11.5000 91.8000 1 30 -11.5000 91.8000 TC 30 75 75 4 162
1981142S08091 1981 36 SI WA PADDY 1981-05-26 03:00:00 TS -11.7551 91.8368 main 1376 1370 P_____P___P_P_ SH291981 -11.6925 91.8075 30 -1 -11.9425 91.9024 30 60 977 -11.6928 91.8297 1 30 -11.6925 91.8075 TC 35 4 170
1981142S08091 1981 36 SI WA PADDY 1981-05-26 06:00:00 TS -11.9731 91.8594 65 973 bom main 1388 1388 O_____O___P_O_ jtwc_sh SH291981 -11.9000 91.8000 30 -1 -12.2000 92.0000 40 65 973 4.50000 3 -11.8925 91.8375 1 30 -11.9000 91.8000 TC 40 89 89 4 0
1981142S08091 1981 36 SI WA PADDY 1981-05-26 09:00:00 TS -12.1940 91.8179 main 1413 1413 P_____P___P_P_ SH291981 -12.1000 91.8075 30 -1 -12.4801 91.8302 40 65 973 -12.0959 91.8266 1 30 -12.1000 91.8075 TC 45 4 193
1981142S08091 1981 36 SI WA PADDY 1981-05-26 12:00:00 TS -12.4000 91.7500 65 973 bom main 1431 1431 O_____O___O_O_ jtwc_sh SH291981 -12.3000 91.8000 30 -1 -12.7000 91.6000 40 65 973 4.50000 3 -12.3000 91.8000 1 30 -12.3000 91.8000 TC 50 89 89 4 197
1981142S08091 1981 36 SI WA PADDY 1981-05-26 15:00:00 TS -12.5720 91.6967 main 1456 1456 P_____P___P_P_ SH291981 -12.5000 91.7575 32 -1 -12.7800 91.5274 40 65 973 -12.5081 91.7442 1 31 -12.5000 91.7575 TC 52 3 198
1981142S08091 1981 36 SI WA PADDY 1981-05-26 18:00:00 TS -12.7288 91.6444 65 973 bom main 1471 1471 O_____O___P_O_ jtwc_sh SH291981 -12.7000 91.7000 35 0 -12.8000 91.5000 40 65 973 4.00000 4.50000 3 -12.7150 91.6777 1 32 -12.7000 91.7000 TC 55 89 89 3 199
1981142S08091 1981 36 SI WA PADDY 1981-05-26 21:00:00 TS -12.8911 91.5837 main 1490 1490 P_____P___P_P_ SH291981 -12.9075 91.6350 35 0 -12.8350 91.4425 40 60 973 -12.9144 91.6223 1 33 -12.9075 91.6350 TC 55 3 196
1981142S08091 1981 36 SI WA PADDY 1981-05-27 00:00:00 TS -13.0500 91.5500 55 973 bom main 1499 1509 O_____O___O_O_ jtwc_sh SH291981 -13.1000 91.6000 35 0 -12.9000 91.4000 30 55 973 3.50000 4.00000 3 -13.1000 91.6000 2 35 -13.1000 91.6000 TC 55 75 75 3 182
1981142S08091 1981 36 SI WA PADDY 1981-05-27 03:00:00 TS -13.2075 91.5611 main 1518 1518 P_____P___P_P_ SH291981 -13.2575 91.6275 35 0 -13.0425 91.3625 30 52 973 -13.2725 91.6268 2 35 -13.2575 91.6275 TC 55 3 168
1981142S08091 1981 36 SI WA PADDY 1981-05-27 06:00:00 TS -13.3575 91.6225 50 973 bom main 1537 1531 O_____O___P_O_ jtwc_sh SH291981 -13.4000 91.7000 35 0 -13.2000 91.4000 30 50 973 3.00000 3.50000 3 -13.4300 91.6899 2 35 -13.4000 91.7000 TC 55 69 69 3 151
1981142S08091 1981 36 SI WA PADDY 1981-05-27 09:00:00 TS -13.4987 91.7308 main 1541 1535 P_____P___P_P_ SH291981 -13.5575 91.7850 35 0 -13.3075 91.5700 30 50 973 -13.5725 91.7831 2 35 -13.5575 91.7850 TC 55 4 137
1981142S08091 1981 36 SI WA PADDY 1981-05-27 12:00:00 TS -13.6250 91.8750 50 973 bom main 1539 1539 O_____O___O_O_ jtwc_sh SH291981 -13.7000 91.9000 35 0 -13.4000 91.8000 21 50 973 3.00000 3.50000 3 -13.7000 91.9000 2 35 -13.7000 91.9000 TC 55 69 69 4 128
1981142S08091 1981 36 SI WA PADDY 1981-05-27 15:00:00 TS -13.7274 92.0352 main 1544 1538 P_____P___P_P_ SH291981 -13.8075 92.0425 35 0 -13.4925 92.0150 21 47 975 -13.8023 92.0407 2 35 -13.8075 92.0425 TC 55 4 122
1981142S08091 1981 36 SI WA PADDY 1981-05-27 18:00:00 TS -13.8232 92.2000 45 978 bom main 1543 1543 O_____O___P_O_ jtwc_sh SH291981 -13.9000 92.2000 35 0 -13.6000 92.2000 30 45 978 3.00000 3.00000 3 -13.8926 92.2000 2 35 -13.9000 92.2000 TC 55 64 64 4 123
1981142S08091 1981 36 SI WA PADDY 1981-05-27 21:00:00 TS -13.9285 92.3511 main 1542 1542 P_____P___P_P_ SH291981 -13.9925 92.3650 35 0 -13.7425 92.3150 30 45 980 -13.9866 92.3594 2 35 -13.9925 92.3650 TC 50 4 130
1981142S08091 1981 36 SI WA PADDY 1981-05-28 00:00:00 TS -14.0500 92.4750 45 983 bom main 1547 1547 O_____O___O_O_ jtwc_sh SH291981 -14.1000 92.5000 35 0 -13.9000 92.4000 30 45 983 3.00000 3.00000 3 -14.1000 92.5000 2 35 -14.1000 92.5000 TC 45 64 64 3 142
1981142S08091 1981 36 SI WA PADDY 1981-05-28 03:00:00 TS -14.1865 92.5567 main 1561 1561 P_____P___P_P_ SH291981 -14.2350 92.5575 35 0 -14.0350 92.5150 30 42 983 -14.2412 92.5966 2 33 -14.2350 92.5575 TC 40 3 156
1981142S08091 1981 36 SI WA PADDY 1981-05-28 06:00:00 TS -14.3512 92.6182 40 983 bom main 1577 1577 O_____O___P_O_ jtwc_sh SH291981 -14.4000 92.6000 35 0 -14.2000 92.6000 30 40 983 3.00000 3.00000 3 -14.4049 92.6726 2 32 -14.4000 92.6000 TC 35 55 55 4 162
1981142S08091 1981 36 SI WA PADDY 1981-05-28 09:00:00 TS -14.5472 92.6806 main 1578 1578 P_____P___P_P_ SH291981 -14.5850 92.7000 32 -1 -14.4275 92.5852 30 40 985 -14.5912 92.7373 2 31 -14.5850 92.7000 TC 32 4 163
1981142S08091 1981 36 SI WA PADDY 1981-05-28 12:00:00 TS -14.7750 92.7500 40 988 bom main 1596 1596 O_____O___O_O_ jtwc_sh SH291981 -14.8000 92.8000 30 -1 -14.7000 92.6000 30 40 988 2.50000 3.00000 3 -14.8000 92.8000 1 30 -14.8000 92.8000 TC 30 55 55 5 163
1981142S08091 1981 36 SI WA PADDY 1981-05-28 15:00:00 TS -15.0380 92.8359 main 1612 1612 P_____P___P_P_ SH291981 -15.0425 92.8501 30 -1 -15.0226 92.7848 30 37 990 -15.0446 92.8588 1 30 -15.0425 92.8501 TC 30 6 162
1981142S08091 1981 36 SI WA PADDY 1981-05-28 18:00:00 TS -15.3019 92.9300 35 992 bom main 1631 1631 O_____O___P_O_ jtwc_sh SH291981 -15.3000 92.9000 30 -1 -15.3000 93.0000 30 35 992 2.50000 3.00000 3 -15.3074 92.9201 1 30 -15.3000 92.9000 TC 30 49 49 5 161
1981142S08091 1981 36 SI WA PADDY 1981-05-28 21:00:00 TS -15.5297 93.0148 main 1640 1640 P_____P___P_P_ SH291981 -15.5650 92.9850 30 -1 -15.4224 93.0927 30 32 993 -15.5665 92.9963 1 30 -15.5650 92.9850 TC 30 5 156
1981142S08091 1981 36 SI WA PADDY 1981-05-29 00:00:00 TS -15.7250 93.1250 30 994 bom main 1649 1649 O_____O___O_O_ jtwc_sh SH291981 -15.8000 93.1000 30 -1 -15.5000 93.2000 30 30 994 2.50000 3 -15.8000 93.1000 1 30 -15.8000 93.1000 TC 30 45 45 4 145
1981142S08091 1981 36 SI WA PADDY 1981-05-29 03:00:00 TS -15.8887 93.2811 main 1649 1638 P_____P___P_P_ SH291981 -15.9650 93.2351 30 -1 -15.6500 93.4200 30 30 997 -15.9746 93.2342 1 28 -15.9650 93.2351 TC 30 5 132
1981142S08091 1981 36 SI WA PADDY 1981-05-29 06:00:00 TS -16.0306 93.4744 30 1000 bom main 1638 1628 O_____O___P_O_ jtwc_sh SH291981 -16.1000 93.4000 30 -1 -15.8000 93.7000 20 30 1000 2.50000 3 -16.1224 93.3977 1 27 -16.1000 93.4000 TC 30 45 45 5 125
1981142S08091 1981 36 SI WA PADDY 1981-05-29 09:00:00 TS -16.1629 93.6913 main 1635 1626 P_____P___P_P_ SH291981 -16.2425 93.5851 27 -1 -15.9075 94.0075 20 30 1000 -16.2590 93.5874 1 26 -16.2425 93.5851 TC 27 5 122
1981142S08091 1981 36 SI WA PADDY 1981-05-29 12:00:00 TS -16.3000 93.9250 30 1001 bom main 1626 1617 O_____O___O_O_ jtwc_sh SH291981 -16.4000 93.8000 25 -1 -16.0000 94.3000 20 30 1001 2.50000 3 -16.4000 93.8000 1 25 -16.4000 93.8000 TC 25 45 45 5 124
1981142S08091 1981 36 SI WA PADDY 1981-05-29 15:00:00 TS -16.4642 94.1515 main 1616 1615 P_____P___P_P_ SH291981 -16.6000 94.0425 25 -1 -16.0849 94.4927 20 27 1001 -16.5719 94.0284 1 25 -16.6000 94.0425 TC 25 6 130
1981142S08091 1981 36 SI WA PADDY 1981-05-29 18:00:00 TS -16.6667 94.3740 25 1002 bom main 1615 1607 O_____O___P_O_ jtwc_sh SH291981 -16.8000 94.3000 25 -1 -16.2000 94.7000 20 25 1002 2.00000 3 -16.7500 94.2775 1 25 -16.8000 94.3000 TC 25 45 45 6 132
1981142S08091 1981 36 SI WA PADDY 1981-05-29 21:00:00 TS -16.8666 94.6130 main 1614 1607 P_____P___P_P_ SH291981 -16.9575 94.5501 25 -1 -16.3802 95.0147 20 25 1002 -16.9281 94.5378 1 25 -16.9575 94.5501 TC 25 6 131
1981142S08091 1981 36 SI WA PADDY 1981-05-30 00:00:00 TS -17.0615 94.8462 25 1003 bom main 1614 1607 O_____O___O_O_ jtwc_sh SH291981 -17.1000 94.8000 25 -1 -16.6000 95.4000 20 25 1003 2.00000 3 -17.1000 94.8000 1 25 -17.1000 94.8000 TC 25 45 45 6 133
1981142S08091 1981 36 SI WA PADDY 1981-05-30 03:00:00 TS -17.2536 95.0522 main 1608 1600 P_________P_P_ SH291981 -17.2500 95.0500 25 -1 20 -17.2610 95.0565 1 23 -17.2500 95.0500 TC 25 6 128
1981142S08091 1981 36 SI WA PADDY 1981-05-30 06:00:00 TS -17.4042 95.3024 main 1601 1594 O_________P_O_ jtwc_sh SH291981 -17.4000 95.3000 25 -1 -17.4127 95.3073 1 22 -17.4000 95.3000 TC 25 6 122
1981142S08091 1981 36 SI WA PADDY 1981-05-30 09:00:00 TS -17.5527 95.5515 main 1596 1589 P_________P_P_ SH291981 -17.5501 95.5499 22 -1 -17.5580 95.5545 1 21 -17.5501 95.5499 TC 22 6 122
1981142S08091 1981 36 SI WA PADDY 1981-05-30 12:00:00 TS -17.7000 95.8000 main 1590 O_________O_O_ jtwc_sh SH291981 -17.7000 95.8000 20 -1 -17.7000 95.8000 1 20 -17.7000 95.8000 TC 20 6 122

IBTrACS Databaseについて

本データベースは、米国NOAAが公開する1842年以降の世界の熱帯低気圧のベストトラックデータアーカイブInternational Best Track Archive for Climate Stewardship (IBTrACS)を、ウェブで閲覧しやすい形式に変換したものです。

最終更新日:2021-12-06